createdAt,value
2019-02-11T00:01:33.193Z,5.30
2019-02-11T00:02:40.092Z,5.30
2019-02-11T00:03:47.084Z,5.30
2019-02-11T00:04:53.755Z,5.30
2019-02-11T00:06:00.455Z,5.30
2019-02-11T00:07:07.829Z,5.30
2019-02-11T00:08:14.907Z,5.30
2019-02-11T00:09:21.644Z,5.30
2019-02-11T00:10:28.686Z,5.30
2019-02-11T00:11:35.706Z,5.30
2019-02-11T00:12:42.431Z,5.30
2019-02-11T00:13:49.455Z,5.30
2019-02-11T00:14:56.110Z,5.30
2019-02-11T00:16:02.841Z,5.30
2019-02-11T00:17:09.938Z,5.40
2019-02-11T00:18:17.283Z,5.40
2019-02-11T00:19:24.010Z,5.30
2019-02-11T00:20:30.878Z,5.40
2019-02-11T00:21:37.554Z,5.40
2019-02-11T00:22:44.561Z,5.40
2019-02-11T00:23:51.322Z,5.40
2019-02-11T00:24:58.361Z,5.30
2019-02-11T00:26:05.499Z,5.40
2019-02-11T00:27:12.162Z,5.40
2019-02-11T00:28:19.729Z,5.40
2019-02-11T00:29:26.365Z,5.40
2019-02-11T00:30:34.280Z,5.40
2019-02-11T00:31:41.573Z,5.30
2019-02-11T00:32:49.008Z,5.40
2019-02-11T00:33:55.703Z,5.40
2019-02-11T00:35:02.678Z,5.40
2019-02-11T00:36:09.795Z,5.40
2019-02-11T00:37:16.523Z,5.40
2019-02-11T00:38:23.197Z,5.40
2019-02-11T00:39:30.025Z,5.40
2019-02-11T00:40:36.706Z,5.50
2019-02-11T00:41:43.686Z,5.50
2019-02-11T00:42:50.415Z,5.50
2019-02-11T00:43:57.459Z,5.50
2019-02-11T00:45:04.958Z,5.50
2019-02-11T00:46:11.654Z,5.50
2019-02-11T00:47:18.333Z,5.50
2019-02-11T00:48:25.357Z,5.60
2019-02-11T00:49:32.370Z,5.60
2019-02-11T00:50:39.118Z,5.60
2019-02-11T00:51:45.776Z,5.60
2019-02-11T00:52:53.141Z,5.60
2019-02-11T00:54:00.154Z,5.70
2019-02-11T00:55:07.391Z,5.70
2019-02-11T00:56:14.494Z,5.70
2019-02-11T00:57:21.482Z,5.60
2019-02-11T00:58:28.560Z,5.70
2019-02-11T00:59:35.924Z,5.70
2019-02-11T01:00:42.646Z,5.70
2019-02-11T01:01:49.995Z,5.70
2019-02-11T01:02:57.496Z,5.70
2019-02-11T01:04:04.660Z,5.70
2019-02-11T01:05:11.315Z,5.70
2019-02-11T01:06:18.413Z,5.70
2019-02-11T01:07:25.068Z,5.70
2019-02-11T01:08:32.051Z,5.70
2019-02-11T01:09:39.321Z,5.70
2019-02-11T01:10:46.276Z,5.70
2019-02-11T01:11:53.025Z,5.70
2019-02-11T01:12:59.724Z,5.70
2019-02-11T01:14:06.492Z,5.70
2019-02-11T01:15:14.205Z,5.70
2019-02-11T01:16:21.659Z,5.70
2019-02-11T01:17:28.378Z,5.70
2019-02-11T01:18:35.761Z,5.70
2019-02-11T01:19:42.479Z,5.70
2019-02-11T01:20:49.503Z,5.70
2019-02-11T01:21:56.633Z,5.70
2019-02-11T01:23:03.615Z,5.70
2019-02-11T01:24:10.820Z,5.70
2019-02-11T01:25:17.816Z,5.70
2019-02-11T01:26:24.487Z,5.70
2019-02-11T01:27:31.206Z,5.70
2019-02-11T01:28:38.184Z,5.70
2019-02-11T01:29:44.870Z,5.70
2019-02-11T01:30:51.898Z,5.60
2019-02-11T01:31:58.573Z,5.60
2019-02-11T01:33:05.398Z,5.60
2019-02-11T01:34:12.060Z,5.60
2019-02-11T01:35:18.770Z,5.60
2019-02-11T01:36:25.459Z,5.60
2019-02-11T01:37:32.132Z,5.60
2019-02-11T01:38:39.208Z,5.50
2019-02-11T01:39:46.282Z,5.50
2019-02-11T01:40:52.933Z,5.50
2019-02-11T01:42:00.436Z,5.50
2019-02-11T01:43:07.427Z,5.50
2019-02-11T01:44:14.495Z,5.50
2019-02-11T01:45:21.564Z,5.50
2019-02-11T01:46:28.598Z,5.50
2019-02-11T01:47:35.335Z,5.50
2019-02-11T01:48:42.411Z,5.50
2019-02-11T01:49:49.133Z,5.50
2019-02-11T01:50:55.784Z,5.50
2019-02-11T01:52:02.520Z,5.50
2019-02-11T01:53:09.272Z,5.50
2019-02-11T01:54:16.017Z,5.50
2019-02-11T01:55:22.678Z,5.50
2019-02-11T01:56:29.690Z,5.50
2019-02-11T01:57:36.750Z,5.50
2019-02-11T01:58:43.778Z,5.50
2019-02-11T01:59:51.133Z,5.50
2019-02-11T02:00:58.068Z,5.50
2019-02-11T02:02:04.732Z,5.50
2019-02-11T02:03:11.802Z,5.50
2019-02-11T02:04:19.229Z,5.50
2019-02-11T02:05:25.996Z,5.50
2019-02-11T02:06:32.684Z,5.50
2019-02-11T02:07:39.642Z,5.50
2019-02-11T02:08:46.720Z,5.50
2019-02-11T02:09:53.448Z,5.40
2019-02-11T02:11:00.084Z,5.40
2019-02-11T02:12:07.240Z,5.40
2019-02-11T02:13:13.914Z,5.40
2019-02-11T02:14:20.938Z,5.30
2019-02-11T02:15:27.612Z,5.30
2019-02-11T02:16:34.277Z,5.40
2019-02-11T02:17:41.304Z,5.30
2019-02-11T02:18:48.370Z,5.30
2019-02-11T02:19:55.041Z,5.30
2019-02-11T02:21:01.730Z,5.30
2019-02-11T02:22:08.812Z,5.30
2019-02-11T02:23:15.514Z,5.30
2019-02-11T02:24:22.214Z,5.30
2019-02-11T02:25:29.244Z,5.20
2019-02-11T02:26:36.673Z,5.20
2019-02-11T02:27:43.380Z,5.20
2019-02-11T02:28:50.267Z,5.20
2019-02-11T02:29:57.695Z,5.20
2019-02-11T02:31:04.332Z,5.20
2019-02-11T02:32:11.683Z,5.20
2019-02-11T02:33:18.335Z,5.20
2019-02-11T02:34:25.658Z,5.20
2019-02-11T02:35:32.724Z,5.20
2019-02-11T02:36:39.456Z,5.20
2019-02-11T02:37:46.522Z,5.20
2019-02-11T02:38:53.938Z,5.10
2019-02-11T02:40:01.030Z,5.10
2019-02-11T02:41:07.686Z,5.10
2019-02-11T02:42:14.731Z,5.10
2019-02-11T02:43:21.455Z,5.10
2019-02-11T02:44:28.153Z,5.10
2019-02-11T02:45:35.170Z,5.00
2019-02-11T02:46:41.851Z,5.10
2019-02-11T02:47:48.566Z,5.10
2019-02-11T02:48:55.694Z,5.10
2019-02-11T02:50:02.749Z,5.10
2019-02-11T02:51:09.465Z,5.10
2019-02-11T02:52:16.239Z,5.10
2019-02-11T02:53:23.256Z,5.10
2019-02-11T02:54:31.809Z,5.10
2019-02-11T02:55:38.806Z,5.00
2019-02-11T02:56:46.142Z,5.00
2019-02-11T02:57:53.135Z,5.00
2019-02-11T02:58:59.856Z,4.90
2019-02-11T03:00:09.592Z,4.90
2019-02-11T03:01:16.297Z,4.90
2019-02-11T03:02:22.960Z,4.90
2019-02-11T03:03:29.733Z,4.80
2019-02-11T03:04:36.422Z,4.80
2019-02-11T03:05:43.106Z,4.80
2019-02-11T03:06:49.837Z,4.80
2019-02-11T03:07:56.500Z,4.80
2019-02-11T03:09:04.902Z,4.80
2019-02-11T03:10:12.123Z,4.80
2019-02-11T03:11:19.216Z,4.70
2019-02-11T03:12:26.678Z,4.70
2019-02-11T03:13:33.762Z,4.70
2019-02-11T03:14:40.429Z,4.70
2019-02-11T03:15:47.161Z,4.60
2019-02-11T03:16:53.858Z,4.70
2019-02-11T03:18:00.605Z,4.70
2019-02-11T03:19:07.575Z,4.60
2019-02-11T03:20:14.683Z,4.60
2019-02-11T03:21:21.718Z,4.60
2019-02-11T03:22:29.137Z,4.60
2019-02-11T03:23:35.822Z,4.50
2019-02-11T03:24:42.521Z,4.50
2019-02-11T03:25:49.194Z,4.50
2019-02-11T03:26:56.307Z,4.50
2019-02-11T03:28:03.020Z,4.40
2019-02-11T03:29:10.088Z,4.40
2019-02-11T03:30:17.057Z,4.40
2019-02-11T03:31:23.816Z,4.50
2019-02-11T03:32:30.886Z,4.40
2019-02-11T03:33:38.532Z,4.40
2019-02-11T03:34:45.938Z,4.40
2019-02-11T03:35:52.917Z,4.30
2019-02-11T03:37:00.232Z,4.30
2019-02-11T03:38:06.950Z,4.40
2019-02-11T03:39:13.681Z,4.30
2019-02-11T03:40:21.215Z,4.40
2019-02-11T03:41:28.041Z,4.40
2019-02-11T03:42:34.685Z,4.30
2019-02-11T03:43:41.370Z,4.30
2019-02-11T03:44:48.749Z,4.30
2019-02-11T03:45:55.733Z,4.30
2019-02-11T03:47:03.004Z,4.30
2019-02-11T03:48:10.093Z,4.30
2019-02-11T03:49:17.971Z,4.30
2019-02-11T03:50:25.163Z,4.20
2019-02-11T03:51:31.840Z,4.20
2019-02-11T03:52:38.552Z,4.20
2019-02-11T03:53:45.293Z,4.20
2019-02-11T03:54:52.692Z,4.20
2019-02-11T03:55:59.725Z,4.20
2019-02-11T03:57:06.739Z,4.20
2019-02-11T03:58:13.482Z,4.20
2019-02-11T03:59:20.590Z,4.20
2019-02-11T04:00:27.273Z,4.10
2019-02-11T04:01:34.213Z,4.20
2019-02-11T04:02:40.913Z,4.10
2019-02-11T04:03:47.934Z,4.10
2019-02-11T04:04:54.688Z,4.10
2019-02-11T04:06:01.697Z,4.10
2019-02-11T04:07:09.125Z,4.10
2019-02-11T04:08:15.798Z,4.10
2019-02-11T04:09:23.385Z,4.10
2019-02-11T04:10:30.029Z,4.10
2019-02-11T04:11:37.166Z,4.10
2019-02-11T04:12:44.615Z,4.10
2019-02-11T04:13:51.644Z,4.10
2019-02-11T04:14:58.707Z,4.10
2019-02-11T04:16:05.948Z,4.00
2019-02-11T04:17:12.728Z,4.10
2019-02-11T04:18:19.672Z,4.10
2019-02-11T04:19:26.389Z,4.00
2019-02-11T04:20:33.025Z,4.00
2019-02-11T04:21:39.749Z,4.10
2019-02-11T04:22:46.429Z,4.00
2019-02-11T04:23:53.531Z,4.00
2019-02-11T04:25:00.275Z,4.00
2019-02-11T04:26:07.553Z,3.90
2019-02-11T04:27:14.888Z,3.90
2019-02-11T04:28:21.633Z,3.90
2019-02-11T04:29:28.307Z,3.90
2019-02-11T04:30:34.999Z,3.90
2019-02-11T04:31:42.037Z,3.90
2019-02-11T04:32:49.046Z,3.90
2019-02-11T04:33:58.252Z,3.90
2019-02-11T04:35:04.917Z,3.90
2019-02-11T04:36:11.888Z,3.80
2019-02-11T04:37:18.599Z,3.80
2019-02-11T04:38:25.247Z,3.80
2019-02-11T04:39:31.948Z,3.80
2019-02-11T04:40:38.687Z,3.80
2019-02-11T04:41:45.380Z,3.80
2019-02-11T04:42:52.105Z,3.80
2019-02-11T04:43:59.143Z,3.80
2019-02-11T04:45:06.917Z,3.80
2019-02-11T04:46:13.887Z,3.80
2019-02-11T04:47:20.952Z,3.80
2019-02-11T04:48:28.046Z,3.70
2019-02-11T04:49:34.993Z,3.80
2019-02-11T04:50:41.962Z,3.70
2019-02-11T04:51:48.970Z,3.80
2019-02-11T04:52:56.261Z,3.70
2019-02-11T04:54:03.659Z,3.70
2019-02-11T04:55:10.839Z,3.70
2019-02-11T04:56:17.478Z,3.70
2019-02-11T04:57:24.203Z,3.70
2019-02-11T04:58:30.867Z,3.70
2019-02-11T04:59:37.881Z,3.70
2019-02-11T05:00:45.057Z,3.60
2019-02-11T05:01:51.747Z,3.60
2019-02-11T05:02:59.199Z,3.60
2019-02-11T05:04:05.877Z,3.60
2019-02-11T05:05:12.678Z,3.70
2019-02-11T05:06:19.304Z,3.60
2019-02-11T05:07:26.392Z,3.60
2019-02-11T05:08:33.069Z,3.60
2019-02-11T05:09:39.726Z,3.60
2019-02-11T05:10:46.526Z,3.60
2019-02-11T05:11:53.554Z,3.60
2019-02-11T05:13:00.276Z,3.60
2019-02-11T05:14:07.014Z,3.50
2019-02-11T05:15:14.070Z,3.50
2019-02-11T05:16:21.156Z,3.50
2019-02-11T05:17:27.794Z,3.50
2019-02-11T05:18:34.891Z,3.50
2019-02-11T05:19:41.574Z,3.50
2019-02-11T05:20:48.866Z,3.40
2019-02-11T05:21:55.544Z,3.50
2019-02-11T05:23:02.351Z,3.50
2019-02-11T05:24:08.999Z,3.50
2019-02-11T05:25:15.684Z,3.50
2019-02-11T05:26:22.904Z,3.50
2019-02-11T05:27:29.946Z,3.50
2019-02-11T05:28:37.190Z,3.50
2019-02-11T05:29:43.881Z,3.50
2019-02-11T05:30:50.600Z,3.60
2019-02-11T05:31:57.287Z,3.60
2019-02-11T05:33:04.082Z,3.60
2019-02-11T05:34:10.867Z,3.60
2019-02-11T05:35:17.490Z,3.60
2019-02-11T05:36:24.524Z,3.60
2019-02-11T05:37:31.505Z,3.60
2019-02-11T05:38:38.893Z,3.70
2019-02-11T05:39:45.538Z,3.70
2019-02-11T05:40:52.206Z,3.70
2019-02-11T05:41:58.907Z,3.80
2019-02-11T05:43:05.632Z,3.80
2019-02-11T05:44:12.301Z,3.90
2019-02-11T05:45:19.352Z,3.90
2019-02-11T05:46:26.003Z,3.90
2019-02-11T05:47:32.695Z,3.90
2019-02-11T05:48:39.700Z,4.00
2019-02-11T05:49:46.684Z,4.00
2019-02-11T05:50:53.361Z,4.00
2019-02-11T05:52:00.086Z,4.00
2019-02-11T05:53:07.091Z,4.00
2019-02-11T05:54:13.777Z,4.00
2019-02-11T05:55:20.503Z,4.00
2019-02-11T05:56:27.170Z,4.00
2019-02-11T05:57:34.495Z,4.10
2019-02-11T05:58:41.457Z,4.10
2019-02-11T05:59:48.153Z,4.10
2019-02-11T06:00:54.843Z,4.10
2019-02-11T06:02:01.544Z,4.10
2019-02-11T06:03:09.583Z,4.20
2019-02-11T06:04:17.173Z,4.10
2019-02-11T06:05:24.560Z,4.20
2019-02-11T06:06:31.989Z,4.20
2019-02-11T06:07:38.809Z,4.20
2019-02-11T06:08:45.839Z,4.20
2019-02-11T06:09:52.488Z,4.30
2019-02-11T06:10:59.217Z,4.30
2019-02-11T06:12:06.274Z,4.30
2019-02-11T06:13:12.943Z,4.30
2019-02-11T06:14:19.980Z,4.30
2019-02-11T06:15:26.655Z,4.30
2019-02-11T06:16:33.319Z,4.40
2019-02-11T06:17:40.160Z,4.40
2019-02-11T06:18:47.043Z,4.40
2019-02-11T06:19:54.024Z,4.40
2019-02-11T06:21:00.724Z,4.40
2019-02-11T06:22:07.458Z,4.40
2019-02-11T06:23:14.183Z,4.40
2019-02-11T06:24:20.884Z,4.40
2019-02-11T06:25:27.606Z,4.40
2019-02-11T06:26:34.292Z,4.40
2019-02-11T06:27:41.014Z,4.40
2019-02-11T06:28:47.680Z,4.40
2019-02-11T06:29:54.405Z,4.50
2019-02-11T06:31:01.117Z,4.40
2019-02-11T06:32:07.803Z,4.40
2019-02-11T06:33:14.481Z,4.40
2019-02-11T06:34:21.644Z,4.50
2019-02-11T06:35:28.503Z,4.40
2019-02-11T06:36:35.496Z,4.40
2019-02-11T06:37:42.596Z,4.40
2019-02-11T06:38:49.316Z,4.40
2019-02-11T06:39:56.328Z,4.40
2019-02-11T06:41:03.251Z,4.40
2019-02-11T06:42:10.396Z,4.40
2019-02-11T06:43:17.087Z,4.50
2019-02-11T06:44:23.758Z,4.50
2019-02-11T06:45:30.425Z,4.50
2019-02-11T06:46:37.616Z,4.50
2019-02-11T06:47:44.310Z,4.50
2019-02-11T06:48:50.950Z,4.50
2019-02-11T06:49:57.625Z,4.50
2019-02-11T06:51:05.073Z,4.50
2019-02-11T06:52:11.892Z,4.50
2019-02-11T06:53:18.562Z,4.50
2019-02-11T06:54:25.934Z,4.50
2019-02-11T06:55:32.899Z,4.50
2019-02-11T06:56:39.611Z,4.50
2019-02-11T06:57:46.684Z,4.50
2019-02-11T06:58:53.724Z,4.50
2019-02-11T07:00:01.026Z,4.50
2019-02-11T07:01:08.133Z,4.50
2019-02-11T07:02:15.149Z,4.50
2019-02-11T07:03:22.308Z,4.50
2019-02-11T07:04:29.041Z,4.50
2019-02-11T07:05:35.718Z,4.50
2019-02-11T07:06:42.419Z,4.60
2019-02-11T07:07:50.003Z,4.60
2019-02-11T07:08:56.668Z,4.60
2019-02-11T07:10:03.930Z,4.60
2019-02-11T07:11:11.107Z,4.60
2019-02-11T07:12:18.124Z,4.60
2019-02-11T07:13:24.830Z,4.70
2019-02-11T07:14:31.503Z,4.70
2019-02-11T07:15:38.257Z,4.70
2019-02-11T07:16:44.912Z,4.60
2019-02-11T07:17:51.568Z,4.70
2019-02-11T07:18:58.951Z,4.70
2019-02-11T07:20:06.498Z,4.70
2019-02-11T07:21:13.158Z,4.70
2019-02-11T07:22:20.091Z,4.70
2019-02-11T07:23:26.762Z,4.80
2019-02-11T07:24:34.224Z,4.80
2019-02-11T07:25:40.967Z,4.80
2019-02-11T07:26:48.507Z,4.80
2019-02-11T07:27:55.186Z,4.80
2019-02-11T07:29:02.207Z,4.80
2019-02-11T07:30:10.906Z,4.80
2019-02-11T07:31:17.950Z,4.80
2019-02-11T07:32:24.813Z,4.80
2019-02-11T07:33:34.895Z,4.80
2019-02-11T07:34:41.586Z,4.80
2019-02-11T07:35:48.310Z,4.80
2019-02-11T07:36:54.981Z,4.80
2019-02-11T07:38:01.660Z,4.90
2019-02-11T07:39:10.879Z,4.80
2019-02-11T07:40:17.553Z,4.80
2019-02-11T07:41:32.143Z,4.80
2019-02-11T07:42:52.823Z,4.80
2019-02-11T07:44:04.776Z,4.80
2019-02-11T07:45:37.304Z,4.90
2019-02-11T07:46:47.399Z,4.90
2019-02-11T07:47:54.154Z,4.80
2019-02-11T07:49:01.238Z,4.80
2019-02-11T07:50:08.390Z,4.80
2019-02-11T07:51:15.062Z,4.80
2019-02-11T07:52:26.875Z,4.80
2019-02-11T07:53:30.264Z,4.80
2019-02-11T07:54:37.022Z,4.80
2019-02-11T07:55:43.743Z,4.80
2019-02-11T07:56:50.416Z,4.80
2019-02-11T07:57:57.434Z,4.80
2019-02-11T07:59:04.473Z,4.80
2019-02-11T08:00:11.607Z,4.80
2019-02-11T08:01:18.336Z,4.80
2019-02-11T08:02:25.714Z,4.80
2019-02-11T08:03:32.787Z,4.80
2019-02-11T08:04:39.556Z,4.90
2019-02-11T08:05:46.206Z,4.90
2019-02-11T08:06:53.186Z,4.90
2019-02-11T08:08:00.228Z,5.00
2019-02-11T08:09:08.998Z,5.00
2019-02-11T08:10:16.107Z,5.00
2019-02-11T08:11:23.508Z,5.00
2019-02-11T08:12:30.215Z,5.00
2019-02-11T08:13:36.894Z,5.10
2019-02-11T08:14:43.610Z,5.10
2019-02-11T08:15:50.477Z,5.10
2019-02-11T08:16:57.769Z,5.20
2019-02-11T08:18:04.881Z,5.20
2019-02-11T08:19:12.225Z,5.20
2019-02-11T08:20:19.713Z,5.30
2019-02-11T08:21:26.802Z,5.30
2019-02-11T08:22:33.867Z,5.30
2019-02-11T08:23:40.982Z,5.30
2019-02-11T08:24:48.029Z,5.40
2019-02-11T08:25:55.060Z,5.40
2019-02-11T08:27:02.427Z,5.50
2019-02-11T08:28:09.136Z,5.50
2019-02-11T08:29:15.797Z,5.50
2019-02-11T08:30:22.777Z,5.50
2019-02-11T08:31:29.486Z,5.50
2019-02-11T08:32:36.214Z,5.50
2019-02-11T08:33:42.915Z,5.60
2019-02-11T08:34:50.218Z,5.60
2019-02-11T08:35:56.882Z,5.70
2019-02-11T08:37:03.549Z,5.70
2019-02-11T08:38:10.411Z,5.60
2019-02-11T08:39:18.145Z,5.60
2019-02-11T08:40:25.829Z,5.60
2019-02-11T08:41:33.182Z,5.50
2019-02-11T08:42:39.910Z,5.50
2019-02-11T08:43:47.361Z,5.40
2019-02-11T08:44:54.010Z,5.40
2019-02-11T08:46:00.763Z,5.40
2019-02-11T08:47:07.596Z,5.40
2019-02-11T08:48:14.260Z,5.40
2019-02-11T08:49:21.360Z,5.40
2019-02-11T08:50:28.030Z,5.40
2019-02-11T08:51:35.551Z,5.40
2019-02-11T08:52:42.619Z,5.40
2019-02-11T08:53:49.765Z,5.50
2019-02-11T08:54:57.029Z,5.50
2019-02-11T08:56:04.166Z,5.60
2019-02-11T08:57:11.313Z,5.70
2019-02-11T08:58:18.322Z,5.80
2019-02-11T08:59:25.051Z,5.80
2019-02-11T09:00:31.808Z,6.00
2019-02-11T09:01:39.475Z,6.10
2019-02-11T09:02:46.740Z,6.20
2019-02-11T09:03:53.463Z,6.40
2019-02-11T09:05:00.289Z,6.50
2019-02-11T09:06:07.397Z,6.60
2019-02-11T09:07:14.476Z,6.70
2019-02-11T09:08:21.903Z,6.70
2019-02-11T09:09:28.931Z,6.60
2019-02-11T09:10:35.985Z,6.60
2019-02-11T09:11:42.690Z,6.60
2019-02-11T09:12:49.737Z,6.60
2019-02-11T09:13:56.769Z,6.60
2019-02-11T09:15:03.505Z,6.60
2019-02-11T09:16:10.212Z,6.60
2019-02-11T09:17:17.170Z,6.60
2019-02-11T09:18:23.837Z,6.50
2019-02-11T09:19:30.498Z,6.50
2019-02-11T09:20:37.582Z,6.50
2019-02-11T09:21:44.294Z,6.50
2019-02-11T09:22:51.282Z,6.40
2019-02-11T09:23:57.934Z,6.40
2019-02-11T09:25:05.506Z,6.40
2019-02-11T09:26:13.301Z,6.40
2019-02-11T09:27:20.158Z,6.40
2019-02-11T09:28:27.230Z,6.30
2019-02-11T09:29:33.999Z,6.20
2019-02-11T09:30:40.668Z,6.20
2019-02-11T09:31:47.591Z,6.20
2019-02-11T09:32:54.313Z,6.10
2019-02-11T09:34:01.011Z,6.10
2019-02-11T09:35:07.978Z,6.10
2019-02-11T09:36:15.018Z,6.10
2019-02-11T09:37:21.763Z,6.20
2019-02-11T09:38:28.678Z,6.20
2019-02-11T09:39:35.349Z,6.30
2019-02-11T09:40:42.055Z,6.40
2019-02-11T09:41:49.136Z,6.50
2019-02-11T09:42:55.880Z,6.60
2019-02-11T09:44:02.908Z,6.70
2019-02-11T09:45:14.273Z,6.80
2019-02-11T09:46:22.291Z,6.80
2019-02-11T09:47:28.940Z,6.80
2019-02-11T09:48:35.705Z,6.80
2019-02-11T09:49:42.394Z,6.80
2019-02-11T09:50:52.650Z,6.80
2019-02-11T09:51:59.533Z,6.90
2019-02-11T09:53:07.314Z,7.00
2019-02-11T09:54:14.351Z,7.00
2019-02-11T09:55:25.080Z,7.00
2019-02-11T09:56:32.430Z,7.00
2019-02-11T09:57:39.410Z,7.10
2019-02-11T09:58:46.279Z,7.20
2019-02-11T09:59:53.294Z,7.20
2019-02-11T10:01:00.572Z,7.20
2019-02-11T10:02:07.523Z,7.20
2019-02-11T10:03:14.234Z,7.20
2019-02-11T10:04:21.361Z,7.10
2019-02-11T10:05:28.024Z,7.10
2019-02-11T10:06:34.875Z,7.10
2019-02-11T10:07:41.826Z,7.10
2019-02-11T10:08:48.860Z,7.10
2019-02-11T10:09:55.554Z,7.10
2019-02-11T10:11:02.655Z,7.20
2019-02-11T10:12:10.024Z,7.30
2019-02-11T10:13:16.700Z,7.30
2019-02-11T10:14:23.743Z,7.20
2019-02-11T10:15:30.783Z,7.20
2019-02-11T10:16:37.526Z,7.10
2019-02-11T10:17:44.202Z,7.10
2019-02-11T10:18:50.884Z,7.10
2019-02-11T10:19:57.549Z,7.00
2019-02-11T10:21:04.717Z,6.90
2019-02-11T10:22:11.365Z,6.70
2019-02-11T10:23:18.042Z,6.70
2019-02-11T10:24:24.708Z,6.60
2019-02-11T10:25:31.880Z,6.50
2019-02-11T10:26:38.520Z,6.40
2019-02-11T10:27:45.176Z,6.40
2019-02-11T10:28:52.165Z,6.30
2019-02-11T10:29:59.143Z,6.20
2019-02-11T10:31:05.862Z,6.10
2019-02-11T10:32:12.723Z,6.00
2019-02-11T10:33:19.724Z,6.00
2019-02-11T10:34:26.422Z,5.90
2019-02-11T10:35:42.036Z,5.90
2019-02-11T10:36:45.052Z,5.90
2019-02-11T10:37:51.738Z,5.90
2019-02-11T10:38:58.739Z,6.00
2019-02-11T10:40:06.452Z,6.00
2019-02-11T10:41:13.510Z,6.10
2019-02-11T10:42:20.586Z,6.30
2019-02-11T10:43:27.258Z,6.40
2019-02-11T10:44:33.970Z,6.50
2019-02-11T10:45:40.622Z,6.60
2019-02-11T10:46:47.571Z,6.60
2019-02-11T10:47:54.576Z,6.70
2019-02-11T10:49:01.548Z,6.60
2019-02-11T10:50:09.458Z,6.50
2019-02-11T10:51:16.171Z,6.40
2019-02-11T10:52:22.909Z,6.50
2019-02-11T10:53:29.939Z,6.50
2019-02-11T10:54:36.646Z,6.60
2019-02-11T10:55:43.457Z,6.60
2019-02-11T10:56:50.133Z,6.70
2019-02-11T10:57:56.789Z,6.80
2019-02-11T10:59:03.521Z,6.90
2019-02-11T11:00:19.289Z,7.00
2019-02-11T11:01:26.024Z,7.10
2019-02-11T11:02:33.379Z,7.20
2019-02-11T11:03:40.402Z,7.30
2019-02-11T11:04:47.219Z,7.40
2019-02-11T11:05:54.280Z,7.40
2019-02-11T11:07:01.012Z,7.50
2019-02-11T11:08:08.105Z,7.50
2019-02-11T11:09:16.966Z,7.60
2019-02-11T11:10:35.761Z,7.70
2019-02-11T11:11:42.440Z,7.60
2019-02-11T11:12:49.438Z,7.70
2019-02-11T11:13:56.469Z,7.70
2019-02-11T11:15:03.330Z,7.80
2019-02-11T11:16:10.369Z,7.80
2019-02-11T11:17:17.714Z,7.80
2019-02-11T11:18:24.420Z,7.90
2019-02-11T11:19:31.120Z,7.90
2019-02-11T11:20:38.367Z,7.90
2019-02-11T11:21:45.058Z,8.00
2019-02-11T11:22:51.772Z,8.00
2019-02-11T11:23:58.433Z,8.20
2019-02-11T11:25:05.605Z,8.40
2019-02-11T11:26:12.272Z,8.50
2019-02-11T11:27:18.998Z,8.70
2019-02-11T11:28:25.708Z,8.90
2019-02-11T11:29:32.926Z,9.00
2019-02-11T11:30:40.757Z,8.80
2019-02-11T11:31:47.744Z,8.80
2019-02-11T11:32:55.198Z,8.50
2019-02-11T11:34:02.110Z,8.30
2019-02-11T11:35:09.874Z,8.30
2019-02-11T11:36:16.514Z,8.20
2019-02-11T11:37:23.637Z,8.00
2019-02-11T11:38:30.746Z,8.00
2019-02-11T11:39:37.862Z,7.90
2019-02-11T11:40:44.936Z,7.80
2019-02-11T11:41:51.585Z,7.90
2019-02-11T11:42:58.576Z,7.90
2019-02-11T11:44:05.576Z,8.00
2019-02-11T11:45:15.978Z,8.00
2019-02-11T11:46:23.430Z,7.90
2019-02-11T11:47:30.483Z,7.80
2019-02-11T11:48:37.519Z,7.60
2019-02-11T11:49:44.257Z,7.50
2019-02-11T11:50:51.298Z,7.50
2019-02-11T11:51:58.797Z,7.40
2019-02-11T11:53:05.673Z,7.50
2019-02-11T11:54:12.348Z,7.50
2019-02-11T11:55:20.320Z,7.50
2019-02-11T11:56:27.496Z,7.60
2019-02-11T11:57:34.172Z,7.70
2019-02-11T11:58:40.862Z,7.80
2019-02-11T11:59:47.889Z,7.90
2019-02-11T12:00:54.540Z,7.90
2019-02-11T12:02:01.289Z,8.10
2019-02-11T12:03:08.456Z,8.10
2019-02-11T12:04:15.725Z,8.20
2019-02-11T12:05:22.528Z,8.20
2019-02-11T12:06:29.255Z,8.20
2019-02-11T12:07:35.956Z,8.20
2019-02-11T12:08:43.045Z,8.30
2019-02-11T12:09:49.691Z,8.30
2019-02-11T12:10:56.549Z,8.40
2019-02-11T12:12:03.662Z,8.30
2019-02-11T12:13:22.299Z,8.30
2019-02-11T12:14:20.792Z,8.20
2019-02-11T12:15:28.208Z,8.30
2019-02-11T12:16:34.981Z,8.30
2019-02-11T12:17:42.163Z,8.40
2019-02-11T12:18:49.148Z,8.40
2019-02-11T12:19:55.940Z,8.40
2019-02-11T12:21:02.592Z,8.50
2019-02-11T12:22:12.851Z,8.50
2019-02-11T12:23:17.769Z,8.60
2019-02-11T12:24:24.458Z,8.70
2019-02-11T12:25:31.165Z,8.80
2019-02-11T12:26:38.132Z,8.80
2019-02-11T12:27:44.803Z,8.90
2019-02-11T12:28:52.234Z,8.80
2019-02-11T12:29:58.882Z,8.60
2019-02-11T12:31:05.661Z,8.50
2019-02-11T12:32:12.493Z,8.30
2019-02-11T12:33:19.294Z,8.20
2019-02-11T12:34:26.056Z,7.90
2019-02-11T12:35:32.790Z,7.70
2019-02-11T12:36:39.492Z,7.50
2019-02-11T12:37:46.132Z,7.20
2019-02-11T12:38:52.872Z,7.10
2019-02-11T12:39:59.569Z,7.00
2019-02-11T12:41:06.344Z,7.00
2019-02-11T12:42:13.024Z,7.00
2019-02-11T12:43:19.829Z,7.10
2019-02-11T12:44:26.484Z,7.20
2019-02-11T12:45:33.186Z,7.20
2019-02-11T12:46:39.879Z,7.30
2019-02-11T12:47:46.912Z,7.50
2019-02-11T12:48:53.657Z,7.50
2019-02-11T12:50:00.660Z,7.60
2019-02-11T12:51:07.617Z,7.70
2019-02-11T12:52:14.464Z,7.70
2019-02-11T12:53:21.263Z,7.70
2019-02-11T12:54:27.946Z,7.80
2019-02-11T12:55:35.307Z,8.00
2019-02-11T12:56:42.003Z,8.00
2019-02-11T12:57:49.008Z,8.00
2019-02-11T12:58:56.254Z,8.10
2019-02-11T13:00:02.997Z,8.10
2019-02-11T13:01:10.523Z,8.10
2019-02-11T13:02:17.240Z,8.10
2019-02-11T13:03:24.217Z,8.10
2019-02-11T13:04:30.885Z,8.10
2019-02-11T13:05:45.213Z,8.00
2019-02-11T13:06:46.124Z,8.00
2019-02-11T13:07:52.791Z,7.90
2019-02-11T13:08:59.515Z,7.80
2019-02-11T13:10:07.945Z,7.80
2019-02-11T13:11:14.663Z,7.80
2019-02-11T13:12:21.559Z,7.90
2019-02-11T13:13:28.734Z,7.90
2019-02-11T13:14:35.408Z,8.00
2019-02-11T13:15:59.927Z,8.20
2019-02-11T13:16:50.511Z,8.30
2019-02-11T13:17:58.942Z,8.40
2019-02-11T13:19:05.830Z,8.40
2019-02-11T13:20:13.475Z,8.50
2019-02-11T13:21:20.258Z,8.50
2019-02-11T13:22:27.206Z,8.40
2019-02-11T13:23:33.936Z,8.40
2019-02-11T13:24:40.654Z,8.40
2019-02-11T13:25:47.318Z,8.40
2019-02-11T13:26:54.290Z,8.30
2019-02-11T13:28:00.991Z,8.30
2019-02-11T13:29:07.683Z,8.30
2019-02-11T13:30:19.896Z,8.20
2019-02-11T13:31:26.967Z,8.20
2019-02-11T13:32:33.720Z,8.20
2019-02-11T13:33:40.761Z,8.10
2019-02-11T13:34:47.507Z,8.20
2019-02-11T13:35:54.215Z,8.20
2019-02-11T13:37:01.321Z,8.20
2019-02-11T13:38:08.415Z,8.20
2019-02-11T13:39:15.102Z,8.30
2019-02-11T13:40:22.456Z,8.40
2019-02-11T13:41:29.432Z,8.40
2019-02-11T13:42:36.416Z,8.40
2019-02-11T13:43:50.098Z,8.30
2019-02-11T13:44:57.206Z,8.20
2019-02-11T13:46:04.277Z,8.20
2019-02-11T13:47:10.974Z,8.10
2019-02-11T13:48:18.340Z,8.00
2019-02-11T13:49:25.011Z,8.10
2019-02-11T13:50:31.753Z,8.00
2019-02-11T13:51:38.433Z,8.00
2019-02-11T13:52:45.205Z,8.00
2019-02-11T13:53:51.962Z,8.00
2019-02-11T13:54:59.189Z,8.00
2019-02-11T13:56:07.178Z,8.00
2019-02-11T13:57:13.854Z,8.00
2019-02-11T13:58:20.830Z,8.10
2019-02-11T13:59:27.537Z,8.00
2019-02-11T14:00:35.541Z,8.00
2019-02-11T14:01:42.563Z,8.00
2019-02-11T14:02:51.987Z,8.00
2019-02-11T14:03:59.011Z,8.00
2019-02-11T14:05:06.356Z,8.10
2019-02-11T14:06:13.127Z,8.10
2019-02-11T14:07:19.937Z,8.10
2019-02-11T14:08:26.685Z,8.20
2019-02-11T14:09:33.791Z,8.30
2019-02-11T14:10:40.423Z,8.40
2019-02-11T14:11:47.370Z,8.50
2019-02-11T14:12:54.390Z,8.50
2019-02-11T14:14:03.552Z,8.50
2019-02-11T14:15:09.434Z,8.60
2019-02-11T14:16:16.110Z,8.60
2019-02-11T14:17:22.826Z,8.60
2019-02-11T14:18:29.764Z,8.70
2019-02-11T14:19:36.469Z,8.80
2019-02-11T14:20:44.194Z,8.70
2019-02-11T14:21:50.922Z,8.70
2019-02-11T14:22:57.558Z,8.60
2019-02-11T14:24:04.315Z,8.60
2019-02-11T14:25:11.149Z,8.50
2019-02-11T14:26:17.783Z,8.50
2019-02-11T14:27:24.459Z,8.30
2019-02-11T14:28:31.231Z,8.10
2019-02-11T14:29:37.994Z,7.80
2019-02-11T14:30:44.686Z,7.50
2019-02-11T14:31:51.429Z,7.30
2019-02-11T14:32:58.083Z,7.10
2019-02-11T14:34:09.645Z,6.90
2019-02-11T14:35:13.555Z,6.80
2019-02-11T14:36:20.445Z,6.70
2019-02-11T14:37:27.195Z,6.70
2019-02-11T14:38:33.981Z,6.60
2019-02-11T14:39:41.045Z,6.60
2019-02-11T14:40:47.765Z,6.60
2019-02-11T14:41:54.460Z,6.50
2019-02-11T14:43:01.171Z,6.50
2019-02-11T14:44:07.949Z,6.40
2019-02-11T14:45:15.546Z,6.40
2019-02-11T14:46:22.315Z,6.30
2019-02-11T14:47:29.059Z,6.30
2019-02-11T14:48:36.175Z,6.30
2019-02-11T14:49:42.883Z,6.30
2019-02-11T14:50:49.522Z,6.30
2019-02-11T14:51:56.527Z,6.30
2019-02-11T14:53:03.237Z,6.30
2019-02-11T14:54:09.930Z,6.30